sensor_id;sensor_type;location;lat;lon;timestamp;pressure;altitude;pressure_sealevel;temperature
9119;BMP180;4594;50.994;7.126;2024-03-02T00:00:05;99201.00;;;12.70
9119;BMP180;4594;50.994;7.126;2024-03-02T00:02:44;99172.00;;;12.70
9119;BMP180;4594;50.994;7.126;2024-03-02T00:05:13;99206.00;;;12.60
9119;BMP180;4594;50.994;7.126;2024-03-02T00:07:43;99197.00;;;12.60
9119;BMP180;4594;50.994;7.126;2024-03-02T00:10:14;99189.00;;;12.60
9119;BMP180;4594;50.994;7.126;2024-03-02T00:12:42;99189.00;;;12.60
9119;BMP180;4594;50.994;7.126;2024-03-02T00:15:43;99203.00;;;12.60
9119;BMP180;4594;50.994;7.126;2024-03-02T00:18:34;99199.00;;;12.60
9119;BMP180;4594;50.994;7.126;2024-03-02T00:20:59;99176.00;;;12.60
9119;BMP180;4594;50.994;7.126;2024-03-02T00:23:33;99170.00;;;12.60
9119;BMP180;4594;50.994;7.126;2024-03-02T00:25:59;99177.00;;;12.60
9119;BMP180;4594;50.994;7.126;2024-03-02T00:28:36;99199.00;;;12.60
9119;BMP180;4594;50.994;7.126;2024-03-02T00:31:10;99182.00;;;12.60
9119;BMP180;4594;50.994;7.126;2024-03-02T00:33:47;99196.00;;;12.60
9119;BMP180;4594;50.994;7.126;2024-03-02T00:36:22;99199.00;;;12.70
9119;BMP180;4594;50.994;7.126;2024-03-02T00:38:52;99186.00;;;12.70
9119;BMP180;4594;50.994;7.126;2024-03-02T00:41:31;99191.00;;;12.80
9119;BMP180;4594;50.994;7.126;2024-03-02T00:44:02;99176.00;;;12.80
9119;BMP180;4594;50.994;7.126;2024-03-02T00:46:40;99179.00;;;12.80
9119;BMP180;4594;50.994;7.126;2024-03-02T00:51:39;99154.00;;;12.90
9119;BMP180;4594;50.994;7.126;2024-03-02T00:54:08;99171.00;;;12.90
9119;BMP180;4594;50.994;7.126;2024-03-02T00:56:35;99170.00;;;12.90
9119;BMP180;4594;50.994;7.126;2024-03-02T00:59:01;99157.00;;;13.00
9119;BMP180;4594;50.994;7.126;2024-03-02T01:01:27;99161.00;;;13.00
9119;BMP180;4594;50.994;7.126;2024-03-02T01:03:53;99144.00;;;13.00
9119;BMP180;4594;50.994;7.126;2024-03-02T01:06:19;99165.00;;;13.10
9119;BMP180;4594;50.994;7.126;2024-03-02T01:08:45;99169.00;;;13.10
9119;BMP180;4594;50.994;7.126;2024-03-02T01:11:11;99169.00;;;13.10
9119;BMP180;4594;50.994;7.126;2024-03-02T01:13:37;99162.00;;;13.10
9119;BMP180;4594;50.994;7.126;2024-03-02T01:16:03;99165.00;;;13.10
9119;BMP180;4594;50.994;7.126;2024-03-02T01:18:29;99151.00;;;13.10
9119;BMP180;4594;50.994;7.126;2024-03-02T01:20:56;99157.00;;;13.20
9119;BMP180;4594;50.994;7.126;2024-03-02T01:23:23;99160.00;;;13.10
9119;BMP180;4594;50.994;7.126;2024-03-02T01:25:49;99154.00;;;13.10
9119;BMP180;4594;50.994;7.126;2024-03-02T01:28:17;99159.00;;;13.20
9119;BMP180;4594;50.994;7.126;2024-03-02T01:30:43;99159.00;;;13.10
9119;BMP180;4594;50.994;7.126;2024-03-02T01:33:09;99152.00;;;13.10
9119;BMP180;4594;50.994;7.126;2024-03-02T01:35:35;99157.00;;;13.10
9119;BMP180;4594;50.994;7.126;2024-03-02T01:38:01;99148.00;;;13.10
9119;BMP180;4594;50.994;7.126;2024-03-02T01:40:27;99147.00;;;13.10
9119;BMP180;4594;50.994;7.126;2024-03-02T01:42:54;99151.00;;;13.10
9119;BMP180;4594;50.994;7.126;2024-03-02T01:45:20;99140.00;;;13.10
9119;BMP180;4594;50.994;7.126;2024-03-02T01:47:47;99161.00;;;13.10
9119;BMP180;4594;50.994;7.126;2024-03-02T01:50:13;99149.00;;;13.10
9119;BMP180;4594;50.994;7.126;2024-03-02T01:52:39;99158.00;;;13.10
9119;BMP180;4594;50.994;7.126;2024-03-02T01:55:05;99154.00;;;13.20
9119;BMP180;4594;50.994;7.126;2024-03-02T01:57:36;99141.00;;;13.20
9119;BMP180;4594;50.994;7.126;2024-03-02T02:00:02;99150.00;;;13.20
9119;BMP180;4594;50.994;7.126;2024-03-02T02:02:28;99147.00;;;13.30
9119;BMP180;4594;50.994;7.126;2024-03-02T02:04:54;99137.00;;;13.20
9119;BMP180;4594;50.994;7.126;2024-03-02T02:07:20;99135.00;;;13.20
9119;BMP180;4594;50.994;7.126;2024-03-02T02:09:45;99140.00;;;13.20
9119;BMP180;4594;50.994;7.126;2024-03-02T02:12:11;99146.00;;;13.20
9119;BMP180;4594;50.994;7.126;2024-03-02T02:14:37;99143.00;;;13.20
9119;BMP180;4594;50.994;7.126;2024-03-02T02:17:04;99144.00;;;13.20
9119;BMP180;4594;50.994;7.126;2024-03-02T02:19:30;99143.00;;;13.20
9119;BMP180;4594;50.994;7.126;2024-03-02T02:21:55;99142.00;;;13.20
9119;BMP180;4594;50.994;7.126;2024-03-02T02:24:21;99136.00;;;13.20
9119;BMP180;4594;50.994;7.126;2024-03-02T02:26:47;99135.00;;;13.20
9119;BMP180;4594;50.994;7.126;2024-03-02T02:29:12;99132.00;;;13.20
9119;BMP180;4594;50.994;7.126;2024-03-02T02:31:42;99142.00;;;13.20
9119;BMP180;4594;50.994;7.126;2024-03-02T02:34:08;99131.00;;;13.10
9119;BMP180;4594;50.994;7.126;2024-03-02T02:36:38;99134.00;;;13.10
9119;BMP180;4594;50.994;7.126;2024-03-02T02:39:09;99135.00;;;13.10
9119;BMP180;4594;50.994;7.126;2024-03-02T02:41:36;99127.00;;;13.10
9119;BMP180;4594;50.994;7.126;2024-03-02T02:44:01;99133.00;;;13.10
9119;BMP180;4594;50.994;7.126;2024-03-02T02:46:27;99137.00;;;13.10
9119;BMP180;4594;50.994;7.126;2024-03-02T02:48:53;99130.00;;;13.00
9119;BMP180;4594;50.994;7.126;2024-03-02T02:51:19;99137.00;;;13.00
9119;BMP180;4594;50.994;7.126;2024-03-02T02:53:44;99133.00;;;13.00
9119;BMP180;4594;50.994;7.126;2024-03-02T02:56:10;99123.00;;;13.00
9119;BMP180;4594;50.994;7.126;2024-03-02T02:58:36;99131.00;;;13.00
9119;BMP180;4594;50.994;7.126;2024-03-02T03:01:02;99140.00;;;13.00
9119;BMP180;4594;50.994;7.126;2024-03-02T03:03:27;99131.00;;;13.00
9119;BMP180;4594;50.994;7.126;2024-03-02T03:05:53;99133.00;;;13.00
9119;BMP180;4594;50.994;7.126;2024-03-02T03:08:19;99141.00;;;13.10
9119;BMP180;4594;50.994;7.126;2024-03-02T03:10:44;99132.00;;;13.10
9119;BMP180;4594;50.994;7.126;2024-03-02T03:13:10;99131.00;;;13.10
9119;BMP180;4594;50.994;7.126;2024-03-02T03:15:36;99134.00;;;13.20
9119;BMP180;4594;50.994;7.126;2024-03-02T03:18:04;99137.00;;;13.20
9119;BMP180;4594;50.994;7.126;2024-03-02T03:20:30;99135.00;;;13.30
9119;BMP180;4594;50.994;7.126;2024-03-02T03:22:57;99132.00;;;13.30
9119;BMP180;4594;50.994;7.126;2024-03-02T03:25:23;99138.00;;;13.30
9119;BMP180;4594;50.994;7.126;2024-03-02T03:27:48;99139.00;;;13.40
9119;BMP180;4594;50.994;7.126;2024-03-02T03:30:15;99142.00;;;13.40
9119;BMP180;4594;50.994;7.126;2024-03-02T03:32:40;99151.00;;;13.40
9119;BMP180;4594;50.994;7.126;2024-03-02T03:35:07;99145.00;;;13.50
9119;BMP180;4594;50.994;7.126;2024-03-02T03:37:32;99138.00;;;13.50
9119;BMP180;4594;50.994;7.126;2024-03-02T03:40:03;99149.00;;;13.60
9119;BMP180;4594;50.994;7.126;2024-03-02T03:42:32;99147.00;;;13.60
9119;BMP180;4594;50.994;7.126;2024-03-02T03:44:58;99146.00;;;13.60
9119;BMP180;4594;50.994;7.126;2024-03-02T03:47:23;99158.00;;;13.60
9119;BMP180;4594;50.994;7.126;2024-03-02T03:49:49;99147.00;;;13.60
9119;BMP180;4594;50.994;7.126;2024-03-02T03:52:14;99152.00;;;13.60
9119;BMP180;4594;50.994;7.126;2024-03-02T03:54:40;99145.00;;;13.60
9119;BMP180;4594;50.994;7.126;2024-03-02T03:57:08;99156.00;;;13.70
9119;BMP180;4594;50.994;7.126;2024-03-02T03:59:34;99148.00;;;13.70
9119;BMP180;4594;50.994;7.126;2024-03-02T04:01:59;99159.00;;;13.70
9119;BMP180;4594;50.994;7.126;2024-03-02T04:04:25;99162.00;;;13.70
9119;BMP180;4594;50.994;7.126;2024-03-02T04:06:51;99155.00;;;13.70
9119;BMP180;4594;50.994;7.126;2024-03-02T04:09:16;99156.00;;;13.70
9119;BMP180;4594;50.994;7.126;2024-03-02T04:11:42;99163.00;;;13.70
9119;BMP180;4594;50.994;7.126;2024-03-02T04:14:08;99161.00;;;13.70
9119;BMP180;4594;50.994;7.126;2024-03-02T04:16:34;99144.00;;;13.70
9119;BMP180;4594;50.994;7.126;2024-03-02T04:18:59;99149.00;;;13.60
9119;BMP180;4594;50.994;7.126;2024-03-02T04:21:25;99140.00;;;13.50
9119;BMP180;4594;50.994;7.126;2024-03-02T04:23:51;99143.00;;;13.50
9119;BMP180;4594;50.994;7.126;2024-03-02T04:26:17;99157.00;;;13.50
9119;BMP180;4594;50.994;7.126;2024-03-02T04:28:48;99150.00;;;13.40
9119;BMP180;4594;50.994;7.126;2024-03-02T04:31:15;99155.00;;;13.30
9119;BMP180;4594;50.994;7.126;2024-03-02T04:33:41;99150.00;;;13.30
9119;BMP180;4594;50.994;7.126;2024-03-02T04:36:07;99157.00;;;13.20
9119;BMP180;4594;50.994;7.126;2024-03-02T04:38:35;99156.00;;;13.20
9119;BMP180;4594;50.994;7.126;2024-03-02T04:41:01;99161.00;;;13.10
9119;BMP180;4594;50.994;7.126;2024-03-02T04:43:27;99174.00;;;13.10
9119;BMP180;4594;50.994;7.126;2024-03-02T04:45:52;99171.00;;;13.00
9119;BMP180;4594;50.994;7.126;2024-03-02T04:48:18;99176.00;;;13.00
9119;BMP180;4594;50.994;7.126;2024-03-02T04:50:45;99177.00;;;12.90
9119;BMP180;4594;50.994;7.126;2024-03-02T04:53:10;99170.00;;;12.90
9119;BMP180;4594;50.994;7.126;2024-03-02T04:55:36;99179.00;;;12.80
9119;BMP180;4594;50.994;7.126;2024-03-02T04:58:05;99178.00;;;12.80
9119;BMP180;4594;50.994;7.126;2024-03-02T05:00:32;99185.00;;;12.70
9119;BMP180;4594;50.994;7.126;2024-03-02T05:02:57;99180.00;;;12.70
9119;BMP180;4594;50.994;7.126;2024-03-02T05:05:23;99179.00;;;12.60
9119;BMP180;4594;50.994;7.126;2024-03-02T05:07:49;99184.00;;;12.60
9119;BMP180;4594;50.994;7.126;2024-03-02T05:10:15;99183.00;;;12.60
9119;BMP180;4594;50.994;7.126;2024-03-02T05:12:41;99182.00;;;12.60
9119;BMP180;4594;50.994;7.126;2024-03-02T05:15:12;99177.00;;;12.50
9119;BMP180;4594;50.994;7.126;2024-03-02T05:17:39;99196.00;;;12.50
9119;BMP180;4594;50.994;7.126;2024-03-02T05:20:07;99206.00;;;12.50
9119;BMP180;4594;50.994;7.126;2024-03-02T05:22:34;99189.00;;;12.40
9119;BMP180;4594;50.994;7.126;2024-03-02T05:25:04;99182.00;;;12.40
9119;BMP180;4594;50.994;7.126;2024-03-02T05:27:30;99191.00;;;12.40
9119;BMP180;4594;50.994;7.126;2024-03-02T05:30:01;99209.00;;;12.30
9119;BMP180;4594;50.994;7.126;2024-03-02T05:32:27;99190.00;;;12.30
9119;BMP180;4594;50.994;7.126;2024-03-02T05:34:53;99201.00;;;12.30
9119;BMP180;4594;50.994;7.126;2024-03-02T05:37:18;99188.00;;;12.20
9119;BMP180;4594;50.994;7.126;2024-03-02T05:39:45;99185.00;;;12.20
9119;BMP180;4594;50.994;7.126;2024-03-02T05:42:11;99191.00;;;12.20
9119;BMP180;4594;50.994;7.126;2024-03-02T05:44:37;99193.00;;;12.20
9119;BMP180;4594;50.994;7.126;2024-03-02T05:47:03;99184.00;;;12.10
9119;BMP180;4594;50.994;7.126;2024-03-02T05:49:29;99175.00;;;12.10
9119;BMP180;4594;50.994;7.126;2024-03-02T05:51:55;99175.00;;;12.10
9119;BMP180;4594;50.994;7.126;2024-03-02T05:54:21;99183.00;;;12.10
9119;BMP180;4594;50.994;7.126;2024-03-02T05:56:47;99183.00;;;12.10
9119;BMP180;4594;50.994;7.126;2024-03-02T05:59:13;99177.00;;;12.00
9119;BMP180;4594;50.994;7.126;2024-03-02T06:01:43;99173.00;;;12.00
9119;BMP180;4594;50.994;7.126;2024-03-02T06:04:10;99175.00;;;12.00
9119;BMP180;4594;50.994;7.126;2024-03-02T06:06:36;99176.00;;;12.00
9119;BMP180;4594;50.994;7.126;2024-03-02T06:09:04;99176.00;;;12.00
9119;BMP180;4594;50.994;7.126;2024-03-02T06:11:41;99169.00;;;11.90
9119;BMP180;4594;50.994;7.126;2024-03-02T06:14:08;99175.00;;;12.00
9119;BMP180;4594;50.994;7.126;2024-03-02T06:16:34;99172.00;;;12.00
9119;BMP180;4594;50.994;7.126;2024-03-02T06:19:01;99181.00;;;12.00
9119;BMP180;4594;50.994;7.126;2024-03-02T06:21:29;99185.00;;;12.00
9119;BMP180;4594;50.994;7.126;2024-03-02T06:23:55;99182.00;;;12.00
9119;BMP180;4594;50.994;7.126;2024-03-02T06:26:22;99190.00;;;12.00
9119;BMP180;4594;50.994;7.126;2024-03-02T06:28:47;99206.00;;;12.10
9119;BMP180;4594;50.994;7.126;2024-03-02T06:31:13;99205.00;;;12.10
9119;BMP180;4594;50.994;7.126;2024-03-02T06:33:39;99198.00;;;12.10
9119;BMP180;4594;50.994;7.126;2024-03-02T06:36:05;99208.00;;;12.10
9119;BMP180;4594;50.994;7.126;2024-03-02T06:38:34;99209.00;;;12.10
9119;BMP180;4594;50.994;7.126;2024-03-02T06:41:00;99206.00;;;12.20
9119;BMP180;4594;50.994;7.126;2024-03-02T06:43:25;99213.00;;;12.20
9119;BMP180;4594;50.994;7.126;2024-03-02T06:45:51;99210.00;;;12.30
9119;BMP180;4594;50.994;7.126;2024-03-02T06:48:18;99219.00;;;12.40
9119;BMP180;4594;50.994;7.126;2024-03-02T06:50:47;99212.00;;;12.50
9119;BMP180;4594;50.994;7.126;2024-03-02T06:53:16;99213.00;;;12.60
9119;BMP180;4594;50.994;7.126;2024-03-02T06:55:44;99220.00;;;12.60
9119;BMP180;4594;50.994;7.126;2024-03-02T06:58:13;99218.00;;;12.70
9119;BMP180;4594;50.994;7.126;2024-03-02T07:00:44;99212.00;;;12.80
9119;BMP180;4594;50.994;7.126;2024-03-02T07:03:10;99214.00;;;12.90
9119;BMP180;4594;50.994;7.126;2024-03-02T07:05:36;99224.00;;;13.00
9119;BMP180;4594;50.994;7.126;2024-03-02T07:08:01;99207.00;;;13.30
9119;BMP180;4594;50.994;7.126;2024-03-02T07:10:28;99208.00;;;13.60
9119;BMP180;4594;50.994;7.126;2024-03-02T07:12:54;99220.00;;;13.90
9119;BMP180;4594;50.994;7.126;2024-03-02T07:15:19;99219.00;;;14.20
9119;BMP180;4594;50.994;7.126;2024-03-02T07:18:04;99214.00;;;14.50
9119;BMP180;4594;50.994;7.126;2024-03-02T07:20:30;99225.00;;;14.70
9119;BMP180;4594;50.994;7.126;2024-03-02T07:22:55;99230.00;;;14.80
9119;BMP180;4594;50.994;7.126;2024-03-02T07:25:21;99237.00;;;15.00
9119;BMP180;4594;50.994;7.126;2024-03-02T07:27:47;99229.00;;;15.30
9119;BMP180;4594;50.994;7.126;2024-03-02T07:30:15;99243.00;;;15.70
9119;BMP180;4594;50.994;7.126;2024-03-02T07:32:44;99240.00;;;16.00
9119;BMP180;4594;50.994;7.126;2024-03-02T07:35:12;99247.00;;;16.40
9119;BMP180;4594;50.994;7.126;2024-03-02T07:37:39;99238.00;;;16.70
9119;BMP180;4594;50.994;7.126;2024-03-02T07:40:06;99254.00;;;17.10
9119;BMP180;4594;50.994;7.126;2024-03-02T07:42:35;99264.00;;;17.30
9119;BMP180;4594;50.994;7.126;2024-03-02T07:45:01;99254.00;;;17.60
9119;BMP180;4594;50.994;7.126;2024-03-02T07:47:26;99254.00;;;17.80
9119;BMP180;4594;50.994;7.126;2024-03-02T07:49:52;99264.00;;;18.00
9119;BMP180;4594;50.994;7.126;2024-03-02T07:52:18;99266.00;;;18.30
9119;BMP180;4594;50.994;7.126;2024-03-02T07:54:43;99251.00;;;18.60
9119;BMP180;4594;50.994;7.126;2024-03-02T07:57:09;99260.00;;;19.00
9119;BMP180;4594;50.994;7.126;2024-03-02T07:59:36;99247.00;;;19.30
9119;BMP180;4594;50.994;7.126;2024-03-02T08:02:02;99249.00;;;19.60
9119;BMP180;4594;50.994;7.126;2024-03-02T08:04:28;99240.00;;;19.90
9119;BMP180;4594;50.994;7.126;2024-03-02T08:06:54;99250.00;;;20.20
9119;BMP180;4594;50.994;7.126;2024-03-02T08:09:20;99258.00;;;20.30
9119;BMP180;4594;50.994;7.126;2024-03-02T08:11:45;99248.00;;;20.40
9119;BMP180;4594;50.994;7.126;2024-03-02T08:14:11;99268.00;;;20.70
9119;BMP180;4594;50.994;7.126;2024-03-02T08:16:37;99257.00;;;21.00
9119;BMP180;4594;50.994;7.126;2024-03-02T08:19:02;99266.00;;;21.30
9119;BMP180;4594;50.994;7.126;2024-03-02T08:21:29;99263.00;;;21.60
9119;BMP180;4594;50.994;7.126;2024-03-02T08:23:57;99275.00;;;22.00
9119;BMP180;4594;50.994;7.126;2024-03-02T08:26:23;99263.00;;;22.40
9119;BMP180;4594;50.994;7.126;2024-03-02T08:28:49;99258.00;;;22.80
9119;BMP180;4594;50.994;7.126;2024-03-02T08:31:15;99263.00;;;23.30
9119;BMP180;4594;50.994;7.126;2024-03-02T08:33:40;99261.00;;;23.80
9119;BMP180;4594;50.994;7.126;2024-03-02T08:36:06;99270.00;;;24.20
9119;BMP180;4594;50.994;7.126;2024-03-02T08:38:35;99277.00;;;24.70
9119;BMP180;4594;50.994;7.126;2024-03-02T08:41:00;99268.00;;;25.10
9119;BMP180;4594;50.994;7.126;2024-03-02T08:43:26;99261.00;;;25.50
9119;BMP180;4594;50.994;7.126;2024-03-02T08:45:52;99271.00;;;25.90
9119;BMP180;4594;50.994;7.126;2024-03-02T08:48:17;99282.00;;;26.20
9119;BMP180;4594;50.994;7.126;2024-03-02T08:50:43;99277.00;;;26.60
9119;BMP180;4594;50.994;7.126;2024-03-02T08:53:09;99284.00;;;26.90
9119;BMP180;4594;50.994;7.126;2024-03-02T08:55:34;99286.00;;;27.10
9119;BMP180;4594;50.994;7.126;2024-03-02T08:58:00;99284.00;;;27.10
9119;BMP180;4594;50.994;7.126;2024-03-02T09:00:26;99306.00;;;27.30
9119;BMP180;4594;50.994;7.126;2024-03-02T09:02:52;99280.00;;;27.30
9119;BMP180;4594;50.994;7.126;2024-03-02T09:05:17;99290.00;;;27.50
9119;BMP180;4594;50.994;7.126;2024-03-02T09:07:43;99288.00;;;27.80
9119;BMP180;4594;50.994;7.126;2024-03-02T09:10:09;99289.00;;;28.00
9119;BMP180;4594;50.994;7.126;2024-03-02T09:12:35;99289.00;;;28.20
9119;BMP180;4594;50.994;7.126;2024-03-02T09:15:02;99295.00;;;28.50
9119;BMP180;4594;50.994;7.126;2024-03-02T09:17:29;99289.00;;;28.90
9119;BMP180;4594;50.994;7.126;2024-03-02T09:19:55;99291.00;;;29.20
9119;BMP180;4594;50.994;7.126;2024-03-02T09:22:21;99306.00;;;29.50
9119;BMP180;4594;50.994;7.126;2024-03-02T09:24:47;99277.00;;;29.70
9119;BMP180;4594;50.994;7.126;2024-03-02T09:27:13;99285.00;;;30.00
9119;BMP180;4594;50.994;7.126;2024-03-02T09:29:38;99289.00;;;30.30
9119;BMP180;4594;50.994;7.126;2024-03-02T09:32:06;99284.00;;;30.60
9119;BMP180;4594;50.994;7.126;2024-03-02T09:34:32;99294.00;;;30.80
9119;BMP180;4594;50.994;7.126;2024-03-02T09:36:58;99307.00;;;31.00
9119;BMP180;4594;50.994;7.126;2024-03-02T09:39:24;99300.00;;;31.00
9119;BMP180;4594;50.994;7.126;2024-03-02T09:41:51;99298.00;;;30.80
9119;BMP180;4594;50.994;7.126;2024-03-02T09:44:17;99297.00;;;30.50
9119;BMP180;4594;50.994;7.126;2024-03-02T09:46:43;99310.00;;;30.20
9119;BMP180;4594;50.994;7.126;2024-03-02T09:49:10;99294.00;;;30.00
9119;BMP180;4594;50.994;7.126;2024-03-02T09:51:37;99310.00;;;30.00
9119;BMP180;4594;50.994;7.126;2024-03-02T09:54:03;99295.00;;;29.90
9119;BMP180;4594;50.994;7.126;2024-03-02T09:56:29;99306.00;;;30.10
9119;BMP180;4594;50.994;7.126;2024-03-02T09:58:55;99316.00;;;30.10
9119;BMP180;4594;50.994;7.126;2024-03-02T10:01:21;99297.00;;;30.10
9119;BMP180;4594;50.994;7.126;2024-03-02T10:03:48;99300.00;;;30.30
9119;BMP180;4594;50.994;7.126;2024-03-02T10:06:25;99308.00;;;30.10
9119;BMP180;4594;50.994;7.126;2024-03-02T10:08:51;99296.00;;;30.00
9119;BMP180;4594;50.994;7.126;2024-03-02T10:11:35;99292.00;;;30.00
9119;BMP180;4594;50.994;7.126;2024-03-02T10:14:11;99298.00;;;30.20
9119;BMP180;4594;50.994;7.126;2024-03-02T10:16:41;99291.00;;;30.20
9119;BMP180;4594;50.994;7.126;2024-03-02T10:19:25;99288.00;;;30.20
9119;BMP180;4594;50.994;7.126;2024-03-02T10:21:54;99309.00;;;30.20
9119;BMP180;4594;50.994;7.126;2024-03-02T10:24:21;99289.00;;;30.30
9119;BMP180;4594;50.994;7.126;2024-03-02T10:26:48;99292.00;;;30.40
9119;BMP180;4594;50.994;7.126;2024-03-02T10:29:14;99293.00;;;30.60
9119;BMP180;4594;50.994;7.126;2024-03-02T10:31:43;99288.00;;;30.80
9119;BMP180;4594;50.994;7.126;2024-03-02T10:34:10;99291.00;;;31.00
9119;BMP180;4594;50.994;7.126;2024-03-02T10:36:38;99286.00;;;31.10
9119;BMP180;4594;50.994;7.126;2024-03-02T10:39:08;99278.00;;;31.00
9119;BMP180;4594;50.994;7.126;2024-03-02T10:41:36;99269.00;;;31.00
9119;BMP180;4594;50.994;7.126;2024-03-02T10:44:04;99275.00;;;30.90
9119;BMP180;4594;50.994;7.126;2024-03-02T10:46:33;99271.00;;;30.80
9119;BMP180;4594;50.994;7.126;2024-03-02T10:49:00;99274.00;;;30.80
9119;BMP180;4594;50.994;7.126;2024-03-02T10:51:28;99276.00;;;30.60
9119;BMP180;4594;50.994;7.126;2024-03-02T10:53:58;99283.00;;;30.40
9119;BMP180;4594;50.994;7.126;2024-03-02T10:56:33;99279.00;;;29.70
9119;BMP180;4594;50.994;7.126;2024-03-02T10:59:11;99288.00;;;28.80
9119;BMP180;4594;50.994;7.126;2024-03-02T11:01:43;99284.00;;;28.00
9119;BMP180;4594;50.994;7.126;2024-03-02T11:04:11;99285.00;;;27.20
9119;BMP180;4594;50.994;7.126;2024-03-02T11:06:39;99281.00;;;26.50
9119;BMP180;4594;50.994;7.126;2024-03-02T11:09:10;99280.00;;;25.70
9119;BMP180;4594;50.994;7.126;2024-03-02T11:11:43;99269.00;;;25.10
9119;BMP180;4594;50.994;7.126;2024-03-02T11:14:16;99276.00;;;24.50
9119;BMP180;4594;50.994;7.126;2024-03-02T11:16:43;99264.00;;;24.10
9119;BMP180;4594;50.994;7.126;2024-03-02T11:19:15;99260.00;;;23.60
9119;BMP180;4594;50.994;7.126;2024-03-02T11:21:42;99265.00;;;23.20
9119;BMP180;4594;50.994;7.126;2024-03-02T11:26:50;99266.00;;;22.50
9119;BMP180;4594;50.994;7.126;2024-03-02T11:32:03;99273.00;;;21.90
9119;BMP180;4594;50.994;7.126;2024-03-02T11:34:31;99264.00;;;21.70
9119;BMP180;4594;50.994;7.126;2024-03-02T11:37:04;99257.00;;;21.50
9119;BMP180;4594;50.994;7.126;2024-03-02T11:39:31;99255.00;;;21.30
9119;BMP180;4594;50.994;7.126;2024-03-02T11:41:57;99261.00;;;21.20
9119;BMP180;4594;50.994;7.126;2024-03-02T11:44:28;99276.00;;;21.10
9119;BMP180;4594;50.994;7.126;2024-03-02T11:47:07;99262.00;;;21.00
9119;BMP180;4594;50.994;7.126;2024-03-02T11:49:49;99263.00;;;20.80
9119;BMP180;4594;50.994;7.126;2024-03-02T11:52:17;99249.00;;;20.70
9119;BMP180;4594;50.994;7.126;2024-03-02T11:54:48;99260.00;;;20.60
9119;BMP180;4594;50.994;7.126;2024-03-02T11:57:21;99257.00;;;20.60
9119;BMP180;4594;50.994;7.126;2024-03-02T11:59:50;99251.00;;;20.50
9119;BMP180;4594;50.994;7.126;2024-03-02T12:02:21;99265.00;;;20.40
9119;BMP180;4594;50.994;7.126;2024-03-02T12:04:48;99253.00;;;20.30
9119;BMP180;4594;50.994;7.126;2024-03-02T12:07:23;99247.00;;;20.20
9119;BMP180;4594;50.994;7.126;2024-03-02T12:10:10;99236.00;;;20.10
9119;BMP180;4594;50.994;7.126;2024-03-02T12:12:35;99242.00;;;20.10
9119;BMP180;4594;50.994;7.126;2024-03-02T12:15:02;99238.00;;;20.10
9119;BMP180;4594;50.994;7.126;2024-03-02T12:17:29;99244.00;;;20.00
9119;BMP180;4594;50.994;7.126;2024-03-02T12:19:55;99238.00;;;19.90
9119;BMP180;4594;50.994;7.126;2024-03-02T12:22:21;99238.00;;;19.90
9119;BMP180;4594;50.994;7.126;2024-03-02T12:24:47;99238.00;;;19.90
9119;BMP180;4594;50.994;7.126;2024-03-02T12:27:15;99238.00;;;19.80
9119;BMP180;4594;50.994;7.126;2024-03-02T12:29:41;99227.00;;;19.80
9119;BMP180;4594;50.994;7.126;2024-03-02T12:32:07;99241.00;;;19.80
9119;BMP180;4594;50.994;7.126;2024-03-02T12:34:33;99255.00;;;19.90
9119;BMP180;4594;50.994;7.126;2024-03-02T12:36:59;99236.00;;;19.90
9119;BMP180;4594;50.994;7.126;2024-03-02T12:39:25;99221.00;;;19.90
9119;BMP180;4594;50.994;7.126;2024-03-02T12:41:51;99222.00;;;19.80
9119;BMP180;4594;50.994;7.126;2024-03-02T12:44:17;99222.00;;;19.80
9119;BMP180;4594;50.994;7.126;2024-03-02T12:46:44;99209.00;;;19.80
9119;BMP180;4594;50.994;7.126;2024-03-02T12:49:12;99213.00;;;19.80
9119;BMP180;4594;50.994;7.126;2024-03-02T12:51:40;99221.00;;;19.80
9119;BMP180;4594;50.994;7.126;2024-03-02T12:54:10;99213.00;;;19.80
9119;BMP180;4594;50.994;7.126;2024-03-02T12:56:37;99208.00;;;19.80
9119;BMP180;4594;50.994;7.126;2024-03-02T12:59:04;99197.00;;;19.70
9119;BMP180;4594;50.994;7.126;2024-03-02T13:01:30;99192.00;;;19.70
9119;BMP180;4594;50.994;7.126;2024-03-02T13:03:58;99196.00;;;19.60
9119;BMP180;4594;50.994;7.126;2024-03-02T13:06:25;99190.00;;;19.60
9119;BMP180;4594;50.994;7.126;2024-03-02T13:08:54;99194.00;;;19.50
9119;BMP180;4594;50.994;7.126;2024-03-02T13:11:22;99180.00;;;19.50
9119;BMP180;4594;50.994;7.126;2024-03-02T13:13:50;99185.00;;;19.40
9119;BMP180;4594;50.994;7.126;2024-03-02T13:16:16;99196.00;;;19.40
9119;BMP180;4594;50.994;7.126;2024-03-02T13:18:44;99188.00;;;19.40
9119;BMP180;4594;50.994;7.126;2024-03-02T13:21:10;99200.00;;;19.40
9119;BMP180;4594;50.994;7.126;2024-03-02T13:23:36;99184.00;;;19.40
9119;BMP180;4594;50.994;7.126;2024-03-02T13:26:02;99186.00;;;19.50
9119;BMP180;4594;50.994;7.126;2024-03-02T13:28:28;99185.00;;;19.50
9119;BMP180;4594;50.994;7.126;2024-03-02T13:30:53;99187.00;;;19.50
9119;BMP180;4594;50.994;7.126;2024-03-02T13:33:19;99185.00;;;19.60
9119;BMP180;4594;50.994;7.126;2024-03-02T13:35:51;99183.00;;;19.60
9119;BMP180;4594;50.994;7.126;2024-03-02T13:38:19;99189.00;;;19.60
9119;BMP180;4594;50.994;7.126;2024-03-02T13:40:45;99182.00;;;19.60
9119;BMP180;4594;50.994;7.126;2024-03-02T13:43:11;99189.00;;;19.70
9119;BMP180;4594;50.994;7.126;2024-03-02T13:45:38;99174.00;;;19.70
9119;BMP180;4594;50.994;7.126;2024-03-02T13:48:05;99173.00;;;19.70
9119;BMP180;4594;50.994;7.126;2024-03-02T13:50:31;99172.00;;;19.60
9119;BMP180;4594;50.994;7.126;2024-03-02T13:52:57;99169.00;;;19.70
9119;BMP180;4594;50.994;7.126;2024-03-02T13:55:23;99163.00;;;19.70
9119;BMP180;4594;50.994;7.126;2024-03-02T13:57:48;99170.00;;;19.70
9119;BMP180;4594;50.994;7.126;2024-03-02T14:00:18;99187.00;;;19.80
9119;BMP180;4594;50.994;7.126;2024-03-02T14:02:45;99160.00;;;19.80
9119;BMP180;4594;50.994;7.126;2024-03-02T14:05:12;99158.00;;;19.80
9119;BMP180;4594;50.994;7.126;2024-03-02T14:07:41;99158.00;;;19.80
9119;BMP180;4594;50.994;7.126;2024-03-02T14:10:07;99147.00;;;19.80
9119;BMP180;4594;50.994;7.126;2024-03-02T14:12:33;99151.00;;;19.80
9119;BMP180;4594;50.994;7.126;2024-03-02T14:14:59;99135.00;;;19.80
9119;BMP180;4594;50.994;7.126;2024-03-02T14:17:28;99143.00;;;19.80
9119;BMP180;4594;50.994;7.126;2024-03-02T14:19:54;99134.00;;;19.80
9119;BMP180;4594;50.994;7.126;2024-03-02T14:22:20;99130.00;;;19.80
9119;BMP180;4594;50.994;7.126;2024-03-02T14:24:46;99137.00;;;19.90
9119;BMP180;4594;50.994;7.126;2024-03-02T14:27:13;99128.00;;;19.90
9119;BMP180;4594;50.994;7.126;2024-03-02T14:29:42;99145.00;;;19.90
9119;BMP180;4594;50.994;7.126;2024-03-02T14:32:08;99140.00;;;19.90
9119;BMP180;4594;50.994;7.126;2024-03-02T14:34:34;99146.00;;;20.00
9119;BMP180;4594;50.994;7.126;2024-03-02T14:37:00;99123.00;;;20.00
9119;BMP180;4594;50.994;7.126;2024-03-02T14:39:26;99138.00;;;19.90
9119;BMP180;4594;50.994;7.126;2024-03-02T14:41:52;99125.00;;;19.90